Airfield :
LOGIN :

Register | Disclaimer

   EN    FR    IT 

 










Legend :    VFR   Marginal VFR   IFR   Intensive IFR   Very Intensive IFR
Visi :
Ceiling :
>= 8 km
>= 3000ft
5 to 8 km
1000 to 3000 ft
1500m to 5 km
500 to 1000 ft
800 to 1500m
200 to 500 ft
< 800m
< 200 ft
Symbols :   Thunderstorms  Fog  Heavy snow  Heavy precipitations  Wind > 20 kt
SIGMETs :     Misc.  Thunderstorms  Icing  Turbulence  Mountain Waves  Volcanic Ashes






- Airport Elevation : 505 ft
- IATA code : SXB


LFST - Strasbourg

CURRENT METAR :
  • 032230Z AUTO 32007KT CAVOK 22/12 Q1018 NOSIG

EXPIRED METARs :
  • 032200Z AUTO 32007KT CAVOK 22/12 Q1018 NOSIG
  • 032130Z AUTO 31007KT CAVOK 22/12 Q1018 NOSIG
  • 032100Z AUTO 31007KT CAVOK 23/12 Q1018 NOSIG
  • 032030Z AUTO 31010KT CAVOK 24/12 Q1018 NOSIG

TAF TAF LFST
Valid from the 03 at 18:00 until the 04 at 18:00 UTC


031700Z 0318/0418 31008KT CAVOK
TEMPO 0409/0415 VRB04KT
BECMG 0415/0418 19008KT



MET'MAP, your aeronautical weather chart ! - Copyright ORBIFLY December 2007 - Disclaimer

ORBIFLY MET'MAP TEAM :

Programming & Development : Alexandra Zaïnal
Original concept : Baudouin d'Aumeries
Technical & hardware support : Manuel Goepfert
Assistance : Marc-Olivier Méhu




SOURCES & CREDITS :

   NOAA